sensor_id;sensor_type;location;lat;lon;timestamp;pressure;altitude;pressure_sealevel;temperature;humidity
58072;BME280;60383;46.626;18.866;2023-05-03T00:01:22;100661.09;;;14.61;97.39
58072;BME280;60383;46.626;18.866;2023-05-03T00:03:51;100663.19;;;14.67;96.17
58072;BME280;60383;46.626;18.866;2023-05-03T00:06:16;100659.88;;;14.80;95.02
58072;BME280;60383;46.626;18.866;2023-05-03T00:08:42;100657.81;;;14.74;95.21
58072;BME280;60383;46.626;18.866;2023-05-03T00:11:08;100651.66;;;14.56;95.51
58072;BME280;60383;46.626;18.866;2023-05-03T00:13:34;100654.19;;;14.74;95.22
58072;BME280;60383;46.626;18.866;2023-05-03T00:16:00;100659.34;;;14.77;94.95
58072;BME280;60383;46.626;18.866;2023-05-03T00:18:26;100652.00;;;14.61;95.60
58072;BME280;60383;46.626;18.866;2023-05-03T00:20:52;100653.38;;;14.57;96.31
58072;BME280;60383;46.626;18.866;2023-05-03T00:23:19;100652.00;;;14.61;95.74
58072;BME280;60383;46.626;18.866;2023-05-03T00:25:45;100651.97;;;14.69;94.55
58072;BME280;60383;46.626;18.866;2023-05-03T00:28:11;100649.75;;;14.56;95.08
58072;BME280;60383;46.626;18.866;2023-05-03T00:30:38;100648.75;;;14.49;95.69
58072;BME280;60383;46.626;18.866;2023-05-03T00:33:03;100643.59;;;14.46;95.67
58072;BME280;60383;46.626;18.866;2023-05-03T00:35:29;100640.84;;;14.46;96.18
58072;BME280;60383;46.626;18.866;2023-05-03T00:37:55;100641.44;;;14.73;94.47
58072;BME280;60383;46.626;18.866;2023-05-03T00:40:20;100641.59;;;14.79;93.90
58072;BME280;60383;46.626;18.866;2023-05-03T00:42:45;100647.16;;;14.71;94.10
58072;BME280;60383;46.626;18.866;2023-05-03T00:45:11;100649.69;;;14.81;93.77
58072;BME280;60383;46.626;18.866;2023-05-03T00:47:37;100647.31;;;14.61;94.23
58072;BME280;60383;46.626;18.866;2023-05-03T00:50:03;100646.47;;;14.61;94.90
58072;BME280;60383;46.626;18.866;2023-05-03T00:52:29;100636.53;;;14.43;95.49
58072;BME280;60383;46.626;18.866;2023-05-03T00:54:58;100639.56;;;14.65;94.66
58072;BME280;60383;46.626;18.866;2023-05-03T00:57:25;100635.47;;;14.52;95.43
58072;BME280;60383;46.626;18.866;2023-05-03T00:59:52;100631.09;;;14.75;93.53
58072;BME280;60383;46.626;18.866;2023-05-03T01:02:17;100634.25;;;14.72;93.84
58072;BME280;60383;46.626;18.866;2023-05-03T01:04:43;100640.34;;;14.90;92.76
58072;BME280;60383;46.626;18.866;2023-05-03T01:10:11;100639.56;;;15.05;91.43
58072;BME280;60383;46.626;18.866;2023-05-03T01:12:52;100648.69;;;14.74;92.49
58072;BME280;60383;46.626;18.866;2023-05-03T01:15:58;100655.56;;;14.78;92.57
58072;BME280;60383;46.626;18.866;2023-05-03T01:18:30;100646.28;;;14.71;93.16
58072;BME280;60383;46.626;18.866;2023-05-03T01:20:59;100646.25;;;14.79;93.56
58072;BME280;60383;46.626;18.866;2023-05-03T01:25:58;100646.09;;;14.64;93.92
58072;BME280;60383;46.626;18.866;2023-05-03T01:28:23;100637.34;;;14.68;93.43
58072;BME280;60383;46.626;18.866;2023-05-03T01:30:51;100631.03;;;14.91;92.82
58072;BME280;60383;46.626;18.866;2023-05-03T01:33:32;100638.66;;;14.81;92.73
58072;BME280;60383;46.626;18.866;2023-05-03T01:36:28;100633.19;;;14.64;93.98
58072;BME280;60383;46.626;18.866;2023-05-03T01:38:52;100627.31;;;14.76;93.71
58072;BME280;60383;46.626;18.866;2023-05-03T01:41:20;100634.03;;;14.65;94.44
58072;BME280;60383;46.626;18.866;2023-05-03T01:43:47;100639.78;;;14.55;94.90
58072;BME280;60383;46.626;18.866;2023-05-03T01:46:13;100627.03;;;14.54;95.11
58072;BME280;60383;46.626;18.866;2023-05-03T01:48:39;100632.25;;;14.41;95.59
58072;BME280;60383;46.626;18.866;2023-05-03T01:51:04;100632.06;;;14.42;95.50
58072;BME280;60383;46.626;18.866;2023-05-03T01:53:30;100639.06;;;14.61;94.62
58072;BME280;60383;46.626;18.866;2023-05-03T01:55:55;100630.06;;;14.76;93.51
58072;BME280;60383;46.626;18.866;2023-05-03T01:58:21;100633.75;;;14.51;93.92
58072;BME280;60383;46.626;18.866;2023-05-03T02:00:46;100630.16;;;14.51;94.40
58072;BME280;60383;46.626;18.866;2023-05-03T02:03:12;100627.41;;;14.51;94.30
58072;BME280;60383;46.626;18.866;2023-05-03T02:05:37;100626.31;;;14.60;93.71
58072;BME280;60383;46.626;18.866;2023-05-03T02:08:03;100630.81;;;14.53;94.08
58072;BME280;60383;46.626;18.866;2023-05-03T02:10:28;100627.84;;;14.63;93.47
58072;BME280;60383;46.626;18.866;2023-05-03T02:12:54;100639.44;;;14.58;93.79
58072;BME280;60383;46.626;18.866;2023-05-03T02:15:19;100633.25;;;14.48;94.20
58072;BME280;60383;46.626;18.866;2023-05-03T02:17:45;100630.00;;;14.44;94.55
58072;BME280;60383;46.626;18.866;2023-05-03T02:20:12;100630.94;;;14.20;95.83
58072;BME280;60383;46.626;18.866;2023-05-03T02:22:37;100631.09;;;14.27;95.67
58072;BME280;60383;46.626;18.866;2023-05-03T02:25:04;100635.94;;;14.08;96.73
58072;BME280;60383;46.626;18.866;2023-05-03T02:27:30;100641.22;;;14.34;95.41
58072;BME280;60383;46.626;18.866;2023-05-03T02:29:55;100641.63;;;14.23;95.61
58072;BME280;60383;46.626;18.866;2023-05-03T02:32:21;100630.63;;;14.15;96.05
58072;BME280;60383;46.626;18.866;2023-05-03T02:34:48;100637.16;;;14.14;96.41
58072;BME280;60383;46.626;18.866;2023-05-03T02:37:14;100642.03;;;13.95;97.26
58072;BME280;60383;46.626;18.866;2023-05-03T02:39:39;100633.00;;;14.18;96.54
58072;BME280;60383;46.626;18.866;2023-05-03T02:42:05;100632.84;;;14.19;96.33
58072;BME280;60383;46.626;18.866;2023-05-03T02:44:31;100634.41;;;14.14;96.13
58072;BME280;60383;46.626;18.866;2023-05-03T02:46:56;100635.44;;;14.04;96.81
58072;BME280;60383;46.626;18.866;2023-05-03T02:49:21;100637.66;;;14.09;96.85
58072;BME280;60383;46.626;18.866;2023-05-03T02:51:47;100639.22;;;14.12;96.45
58072;BME280;60383;46.626;18.866;2023-05-03T02:54:12;100641.81;;;14.05;96.60
58072;BME280;60383;46.626;18.866;2023-05-03T02:56:38;100643.50;;;14.14;96.40
58072;BME280;60383;46.626;18.866;2023-05-03T02:59:04;100643.91;;;13.95;96.88
58072;BME280;60383;46.626;18.866;2023-05-03T03:01:30;100643.69;;;14.04;96.73
58072;BME280;60383;46.626;18.866;2023-05-03T03:03:58;100644.41;;;13.98;97.29
58072;BME280;60383;46.626;18.866;2023-05-03T03:06:23;100644.44;;;13.82;97.87
58072;BME280;60383;46.626;18.866;2023-05-03T03:08:49;100648.03;;;13.74;98.51
58072;BME280;60383;46.626;18.866;2023-05-03T03:11:15;100646.50;;;13.80;98.46
58072;BME280;60383;46.626;18.866;2023-05-03T03:13:40;100639.97;;;13.81;98.63
58072;BME280;60383;46.626;18.866;2023-05-03T03:16:06;100642.38;;;13.76;98.19
58072;BME280;60383;46.626;18.866;2023-05-03T03:18:32;100640.28;;;13.86;98.28
58072;BME280;60383;46.626;18.866;2023-05-03T03:21:00;100648.88;;;13.91;97.93
58072;BME280;60383;46.626;18.866;2023-05-03T03:23:25;100646.13;;;13.99;97.15
58072;BME280;60383;46.626;18.866;2023-05-03T03:25:51;100650.97;;;13.72;98.45
58072;BME280;60383;46.626;18.866;2023-05-03T03:28:17;100647.72;;;13.85;97.83
58072;BME280;60383;46.626;18.866;2023-05-03T03:30:42;100652.00;;;13.96;97.39
58072;BME280;60383;46.626;18.866;2023-05-03T03:33:08;100653.53;;;13.90;97.84
58072;BME280;60383;46.626;18.866;2023-05-03T03:35:34;100648.91;;;13.83;97.87
58072;BME280;60383;46.626;18.866;2023-05-03T03:38:00;100653.41;;;13.76;98.52
58072;BME280;60383;46.626;18.866;2023-05-03T03:40:26;100659.06;;;13.74;98.81
58072;BME280;60383;46.626;18.866;2023-05-03T03:42:51;100654.59;;;13.65;99.11
58072;BME280;60383;46.626;18.866;2023-05-03T03:45:17;100661.81;;;13.74;98.44
58072;BME280;60383;46.626;18.866;2023-05-03T03:47:42;100660.06;;;13.73;98.60
58072;BME280;60383;46.626;18.866;2023-05-03T03:50:08;100658.22;;;13.82;98.09
58072;BME280;60383;46.626;18.866;2023-05-03T03:52:34;100656.81;;;13.94;97.39
58072;BME280;60383;46.626;18.866;2023-05-03T03:54:59;100662.69;;;13.83;97.87
58072;BME280;60383;46.626;18.866;2023-05-03T03:57:25;100665.91;;;13.95;97.40
58072;BME280;60383;46.626;18.866;2023-05-03T03:59:54;100666.56;;;14.21;96.11
58072;BME280;60383;46.626;18.866;2023-05-03T04:02:20;100672.06;;;14.30;95.25
58072;BME280;60383;46.626;18.866;2023-05-03T04:04:46;100667.03;;;14.50;94.27
58072;BME280;60383;46.626;18.866;2023-05-03T04:07:11;100666.34;;;14.40;94.06
58072;BME280;60383;46.626;18.866;2023-05-03T04:09:37;100676.19;;;14.34;94.33
58072;BME280;60383;46.626;18.866;2023-05-03T04:12:02;100671.03;;;14.22;95.43
58072;BME280;60383;46.626;18.866;2023-05-03T04:14:28;100671.03;;;14.31;95.17
58072;BME280;60383;46.626;18.866;2023-05-03T04:16:53;100676.34;;;14.41;94.20
58072;BME280;60383;46.626;18.866;2023-05-03T04:19:20;100671.00;;;14.39;94.19
58072;BME280;60383;46.626;18.866;2023-05-03T04:21:46;100681.50;;;14.44;94.24
58072;BME280;60383;46.626;18.866;2023-05-03T04:24:15;100676.50;;;14.47;93.87
58072;BME280;60383;46.626;18.866;2023-05-03T04:26:41;100682.84;;;14.56;93.62
58072;BME280;60383;46.626;18.866;2023-05-03T04:29:07;100681.94;;;14.64;93.43
58072;BME280;60383;46.626;18.866;2023-05-03T04:31:34;100689.19;;;14.57;92.89
58072;BME280;60383;46.626;18.866;2023-05-03T04:33:59;100689.69;;;14.77;92.88
58072;BME280;60383;46.626;18.866;2023-05-03T04:36:25;100693.41;;;14.92;91.63
58072;BME280;60383;46.626;18.866;2023-05-03T04:38:51;100697.22;;;14.91;91.28
58072;BME280;60383;46.626;18.866;2023-05-03T04:41:16;100705.09;;;14.94;90.98
58072;BME280;60383;46.626;18.866;2023-05-03T04:43:42;100707.41;;;14.82;92.65
58072;BME280;60383;46.626;18.866;2023-05-03T04:46:08;100708.44;;;14.81;92.10
58072;BME280;60383;46.626;18.866;2023-05-03T04:48:33;100709.28;;;14.90;92.29
58072;BME280;60383;46.626;18.866;2023-05-03T04:51:00;100713.91;;;14.90;91.79
58072;BME280;60383;46.626;18.866;2023-05-03T04:53:25;100720.25;;;15.07;91.20
58072;BME280;60383;46.626;18.866;2023-05-03T04:55:51;100719.78;;;15.26;89.29
58072;BME280;60383;46.626;18.866;2023-05-03T04:58:16;100726.69;;;15.22;89.73
58072;BME280;60383;46.626;18.866;2023-05-03T05:00:44;100737.41;;;15.17;89.46
58072;BME280;60383;46.626;18.866;2023-05-03T05:03:10;100732.94;;;15.16;89.80
58072;BME280;60383;46.626;18.866;2023-05-03T05:05:36;100728.59;;;15.22;89.17
58072;BME280;60383;46.626;18.866;2023-05-03T05:08:01;100729.28;;;15.24;89.65
58072;BME280;60383;46.626;18.866;2023-05-03T05:10:27;100733.31;;;15.13;90.17
58072;BME280;60383;46.626;18.866;2023-05-03T05:12:52;100738.94;;;15.20;90.27
58072;BME280;60383;46.626;18.866;2023-05-03T05:15:18;100738.91;;;15.28;89.64
58072;BME280;60383;46.626;18.866;2023-05-03T05:17:43;100735.47;;;15.26;89.85
58072;BME280;60383;46.626;18.866;2023-05-03T05:20:09;100735.44;;;15.34;89.57
58072;BME280;60383;46.626;18.866;2023-05-03T05:22:39;100741.78;;;15.34;89.36
58072;BME280;60383;46.626;18.866;2023-05-03T05:25:06;100742.88;;;15.57;88.10
58072;BME280;60383;46.626;18.866;2023-05-03T05:27:32;100743.47;;;15.44;88.47
58072;BME280;60383;46.626;18.866;2023-05-03T05:29:58;100742.44;;;15.45;89.28
58072;BME280;60383;46.626;18.866;2023-05-03T05:32:23;100737.75;;;15.45;89.21
58072;BME280;60383;46.626;18.866;2023-05-03T05:34:49;100743.44;;;15.52;88.59
58072;BME280;60383;46.626;18.866;2023-05-03T05:37:22;100741.97;;;15.64;88.43
58072;BME280;60383;46.626;18.866;2023-05-03T05:39:48;100736.13;;;15.59;88.81
58072;BME280;60383;46.626;18.866;2023-05-03T05:42:14;100743.97;;;15.47;89.57
58072;BME280;60383;46.626;18.866;2023-05-03T05:44:40;100737.97;;;15.67;89.45
58072;BME280;60383;46.626;18.866;2023-05-03T05:47:06;100738.91;;;15.59;90.10
58072;BME280;60383;46.626;18.866;2023-05-03T05:49:31;100745.09;;;15.61;89.72
58072;BME280;60383;46.626;18.866;2023-05-03T05:51:57;100746.25;;;15.67;89.74
58072;BME280;60383;46.626;18.866;2023-05-03T05:54:22;100755.81;;;15.79;89.79
58072;BME280;60383;46.626;18.866;2023-05-03T05:56:48;100757.03;;;15.85;89.01
58072;BME280;60383;46.626;18.866;2023-05-03T05:59:14;100762.25;;;16.03;89.06
58072;BME280;60383;46.626;18.866;2023-05-03T06:01:40;100753.84;;;16.35;87.83
58072;BME280;60383;46.626;18.866;2023-05-03T06:04:13;100756.63;;;16.50;85.73
58072;BME280;60383;46.626;18.866;2023-05-03T06:06:39;100756.53;;;16.73;84.62
58072;BME280;60383;46.626;18.866;2023-05-03T06:09:05;100761.91;;;16.89;83.66
58072;BME280;60383;46.626;18.866;2023-05-03T06:11:31;100757.81;;;17.15;81.83
58072;BME280;60383;46.626;18.866;2023-05-03T06:13:58;100761.41;;;17.67;79.44
58072;BME280;60383;46.626;18.866;2023-05-03T06:16:23;100769.66;;;17.97;79.00
58072;BME280;60383;46.626;18.866;2023-05-03T06:18:49;100764.28;;;18.17;75.72
58072;BME280;60383;46.626;18.866;2023-05-03T06:21:15;100761.72;;;18.44;74.34
58072;BME280;60383;46.626;18.866;2023-05-03T06:23:41;100764.09;;;18.47;73.62
58072;BME280;60383;46.626;18.866;2023-05-03T06:26:06;100767.00;;;18.67;72.99
58072;BME280;60383;46.626;18.866;2023-05-03T06:28:32;100763.53;;;18.59;69.88
58072;BME280;60383;46.626;18.866;2023-05-03T06:30:57;100769.88;;;18.52;69.75
58072;BME280;60383;46.626;18.866;2023-05-03T06:33:23;100775.41;;;18.46;68.85
58072;BME280;60383;46.626;18.866;2023-05-03T06:35:48;100770.00;;;18.66;68.37
58072;BME280;60383;46.626;18.866;2023-05-03T06:38:14;100769.75;;;18.61;68.91
58072;BME280;60383;46.626;18.866;2023-05-03T06:40:40;100770.19;;;18.64;68.25
58072;BME280;60383;46.626;18.866;2023-05-03T06:43:06;100769.88;;;18.52;68.49
58072;BME280;60383;46.626;18.866;2023-05-03T06:45:31;100770.41;;;18.63;67.79
58072;BME280;60383;46.626;18.866;2023-05-03T06:47:57;100764.88;;;18.63;68.78
58072;BME280;60383;46.626;18.866;2023-05-03T06:50:23;100767.13;;;18.52;68.51
58072;BME280;60383;46.626;18.866;2023-05-03T06:52:49;100767.72;;;18.48;68.18
58072;BME280;60383;46.626;18.866;2023-05-03T06:55:15;100770.69;;;18.46;68.90
58072;BME280;60383;46.626;18.866;2023-05-03T06:57:41;100770.31;;;18.49;68.52
58072;BME280;60383;46.626;18.866;2023-05-03T07:00:08;100768.00;;;18.53;67.92
58072;BME280;60383;46.626;18.866;2023-05-03T07:02:35;100753.59;;;18.71;67.44
58072;BME280;60383;46.626;18.866;2023-05-03T07:05:01;100755.56;;;18.77;66.78
58072;BME280;60383;46.626;18.866;2023-05-03T07:07:27;100753.59;;;19.06;65.53
58072;BME280;60383;46.626;18.866;2023-05-03T07:09:52;100754.22;;;19.02;65.25
58072;BME280;60383;46.626;18.866;2023-05-03T07:12:18;100751.81;;;19.34;65.11
58072;BME280;60383;46.626;18.866;2023-05-03T07:14:43;100753.38;;;19.50;63.54
58072;BME280;60383;46.626;18.866;2023-05-03T07:17:09;100756.41;;;19.68;62.84
58072;BME280;60383;46.626;18.866;2023-05-03T07:19:34;100754.06;;;19.65;62.73
58072;BME280;60383;46.626;18.866;2023-05-03T07:22:01;100758.75;;;19.64;61.99
58072;BME280;60383;46.626;18.866;2023-05-03T07:24:27;100766.47;;;19.69;61.48
58072;BME280;60383;46.626;18.866;2023-05-03T07:26:53;100763.06;;;19.74;60.87
58072;BME280;60383;46.626;18.866;2023-05-03T07:29:18;100759.88;;;19.77;59.82
58072;BME280;60383;46.626;18.866;2023-05-03T07:31:44;100759.91;;;19.84;59.69
58072;BME280;60383;46.626;18.866;2023-05-03T07:34:10;100753.00;;;19.73;60.94
58072;BME280;60383;46.626;18.866;2023-05-03T07:36:37;100759.31;;;19.46;60.67
58072;BME280;60383;46.626;18.866;2023-05-03T07:39:03;100760.03;;;19.07;61.33
58072;BME280;60383;46.626;18.866;2023-05-03T07:41:29;100762.97;;;18.98;62.82
58072;BME280;60383;46.626;18.866;2023-05-03T07:43:55;100763.97;;;18.91;62.74
58072;BME280;60383;46.626;18.866;2023-05-03T07:46:21;100757.53;;;18.83;64.02
58072;BME280;60383;46.626;18.866;2023-05-03T07:48:47;100761.50;;;18.74;64.95
58072;BME280;60383;46.626;18.866;2023-05-03T07:51:12;100764.69;;;18.71;64.90
58072;BME280;60383;46.626;18.866;2023-05-03T07:53:38;100763.00;;;18.70;64.96
58072;BME280;60383;46.626;18.866;2023-05-03T07:56:06;100761.44;;;18.61;64.70
58072;BME280;60383;46.626;18.866;2023-05-03T07:58:31;100771.66;;;18.60;66.31
58072;BME280;60383;46.626;18.866;2023-05-03T08:00:57;100767.47;;;18.71;66.17
58072;BME280;60383;46.626;18.866;2023-05-03T08:03:22;100770.19;;;18.64;66.47
58072;BME280;60383;46.626;18.866;2023-05-03T08:05:48;100776.41;;;18.66;66.41
58072;BME280;60383;46.626;18.866;2023-05-03T08:08:14;100770.03;;;18.73;65.99
58072;BME280;60383;46.626;18.866;2023-05-03T08:10:39;100776.94;;;18.55;65.63
58072;BME280;60383;46.626;18.866;2023-05-03T08:13:05;100776.53;;;18.87;65.69
58072;BME280;60383;46.626;18.866;2023-05-03T08:15:32;100781.56;;;19.05;63.07
58072;BME280;60383;46.626;18.866;2023-05-03T08:17:58;100777.47;;;18.94;63.68
58072;BME280;60383;46.626;18.866;2023-05-03T08:20:24;100776.13;;;19.25;62.36
58072;BME280;60383;46.626;18.866;2023-05-03T08:22:51;100778.63;;;19.61;61.21
58072;BME280;60383;46.626;18.866;2023-05-03T08:25:23;100778.41;;;19.56;60.91
58072;BME280;60383;46.626;18.866;2023-05-03T08:27:51;100776.63;;;20.04;61.22
58072;BME280;60383;46.626;18.866;2023-05-03T08:30:16;100774.47;;;19.99;60.80
58072;BME280;60383;46.626;18.866;2023-05-03T08:32:42;100777.88;;;20.01;61.65
58072;BME280;60383;46.626;18.866;2023-05-03T08:35:08;100777.28;;;20.26;62.12
58072;BME280;60383;46.626;18.866;2023-05-03T08:37:37;100777.69;;;20.43;62.60
58072;BME280;60383;46.626;18.866;2023-05-03T08:40:05;100775.97;;;20.55;61.82
58072;BME280;60383;46.626;18.866;2023-05-03T08:42:31;100765.72;;;20.69;60.58
58072;BME280;60383;46.626;18.866;2023-05-03T08:44:58;100774.69;;;20.85;60.34
58072;BME280;60383;46.626;18.866;2023-05-03T08:47:24;100769.25;;;21.10;60.36
58072;BME280;60383;46.626;18.866;2023-05-03T08:49:52;100772.34;;;21.41;60.06
58072;BME280;60383;46.626;18.866;2023-05-03T08:52:18;100778.41;;;21.83;56.92
58072;BME280;60383;46.626;18.866;2023-05-03T08:54:45;100779.81;;;21.53;54.73
58072;BME280;60383;46.626;18.866;2023-05-03T08:57:13;100779.81;;;21.47;55.01
58072;BME280;60383;46.626;18.866;2023-05-03T08:59:48;100780.38;;;21.76;53.79
58072;BME280;60383;46.626;18.866;2023-05-03T09:02:15;100779.28;;;22.09;54.56
58072;BME280;60383;46.626;18.866;2023-05-03T09:04:41;100774.91;;;22.20;53.52
58072;BME280;60383;46.626;18.866;2023-05-03T09:07:08;100784.81;;;21.83;50.49
58072;BME280;60383;46.626;18.866;2023-05-03T09:09:34;100784.91;;;21.04;50.79
58072;BME280;60383;46.626;18.866;2023-05-03T09:12:01;100784.06;;;21.11;52.36
58072;BME280;60383;46.626;18.866;2023-05-03T09:14:26;100784.25;;;21.16;54.89
58072;BME280;60383;46.626;18.866;2023-05-03T09:16:52;100788.47;;;21.25;51.17
58072;BME280;60383;46.626;18.866;2023-05-03T09:19:17;100788.47;;;21.32;51.83
58072;BME280;60383;46.626;18.866;2023-05-03T09:21:44;100787.56;;;21.45;52.49
58072;BME280;60383;46.626;18.866;2023-05-03T09:24:21;100794.59;;;21.61;50.49
58072;BME280;60383;46.626;18.866;2023-05-03T09:26:50;100791.66;;;21.35;49.81
58072;BME280;60383;46.626;18.866;2023-05-03T09:29:29;100789.38;;;21.19;49.04
58072;BME280;60383;46.626;18.866;2023-05-03T09:31:59;100782.38;;;21.55;48.55
58072;BME280;60383;46.626;18.866;2023-05-03T09:34:25;100785.84;;;21.89;51.75
58072;BME280;60383;46.626;18.866;2023-05-03T09:36:50;100790.84;;;22.12;52.94
58072;BME280;60383;46.626;18.866;2023-05-03T09:39:17;100779.72;;;22.38;51.88
58072;BME280;60383;46.626;18.866;2023-05-03T09:41:43;100799.63;;;22.48;49.97
58072;BME280;60383;46.626;18.866;2023-05-03T09:44:08;100782.97;;;22.60;50.67
58072;BME280;60383;46.626;18.866;2023-05-03T09:46:34;100783.44;;;22.82;50.82
58072;BME280;60383;46.626;18.866;2023-05-03T09:48:59;100785.31;;;23.07;49.71
58072;BME280;60383;46.626;18.866;2023-05-03T09:51:26;100781.59;;;23.13;49.35
58072;BME280;60383;46.626;18.866;2023-05-03T09:53:52;100780.94;;;23.11;48.65
58072;BME280;60383;46.626;18.866;2023-05-03T09:56:20;100786.13;;;22.89;48.81
58072;BME280;60383;46.626;18.866;2023-05-03T09:58:51;100778.28;;;23.23;48.85
58072;BME280;60383;46.626;18.866;2023-05-03T10:01:18;100781.13;;;23.16;48.06
58072;BME280;60383;46.626;18.866;2023-05-03T10:03:49;100775.59;;;23.09;48.88
58072;BME280;60383;46.626;18.866;2023-05-03T10:06:31;100774.28;;;22.93;47.92
58072;BME280;60383;46.626;18.866;2023-05-03T10:09:18;100772.75;;;22.72;48.77
58072;BME280;60383;46.626;18.866;2023-05-03T10:11:49;100772.41;;;23.06;49.78
58072;BME280;60383;46.626;18.866;2023-05-03T10:14:16;100765.56;;;23.27;49.09
58072;BME280;60383;46.626;18.866;2023-05-03T10:16:46;100767.72;;;23.25;44.00
58072;BME280;60383;46.626;18.866;2023-05-03T10:19:23;100769.81;;;23.29;46.73
58072;BME280;60383;46.626;18.866;2023-05-03T10:22:05;100762.13;;;23.25;43.24
58072;BME280;60383;46.626;18.866;2023-05-03T10:24:32;100761.69;;;22.84;44.45
58072;BME280;60383;46.626;18.866;2023-05-03T10:26:58;100752.63;;;23.07;43.96
58072;BME280;60383;46.626;18.866;2023-05-03T10:32:04;100762.28;;;23.11;38.71
58072;BME280;60383;46.626;18.866;2023-05-03T10:34:34;100753.91;;;23.30;38.23
58072;BME280;60383;46.626;18.866;2023-05-03T10:37:02;100752.75;;;23.19;37.28
58072;BME280;60383;46.626;18.866;2023-05-03T10:39:29;100754.94;;;23.66;39.66
58072;BME280;60383;46.626;18.866;2023-05-03T10:42:02;100758.66;;;23.90;40.46
58072;BME280;60383;46.626;18.866;2023-05-03T10:44:37;100751.69;;;23.81;41.88
58072;BME280;60383;46.626;18.866;2023-05-03T10:47:29;100753.38;;;24.01;41.97
58072;BME280;60383;46.626;18.866;2023-05-03T10:55:11;100754.69;;;24.64;36.23
58072;BME280;60383;46.626;18.866;2023-05-03T10:57:39;100751.13;;;24.33;35.72
58072;BME280;60383;46.626;18.866;2023-05-03T11:00:12;100753.81;;;24.52;38.03
58072;BME280;60383;46.626;18.866;2023-05-03T11:03:08;100749.19;;;24.46;36.47
58072;BME280;60383;46.626;18.866;2023-05-03T11:05:37;100753.09;;;24.56;39.16
58072;BME280;60383;46.626;18.866;2023-05-03T11:08:16;100748.91;;;24.23;39.99
58072;BME280;60383;46.626;18.866;2023-05-03T11:10:47;100754.75;;;23.80;40.73
58072;BME280;60383;46.626;18.866;2023-05-03T11:13:13;100749.41;;;23.59;40.79
58072;BME280;60383;46.626;18.866;2023-05-03T11:15:39;100744.69;;;23.90;38.40
58072;BME280;60383;46.626;18.866;2023-05-03T11:18:06;100749.91;;;24.29;38.57
58072;BME280;60383;46.626;18.866;2023-05-03T11:20:32;100748.72;;;24.72;39.09
58072;BME280;60383;46.626;18.866;2023-05-03T11:22:58;100755.25;;;24.31;37.68
58072;BME280;60383;46.626;18.866;2023-05-03T11:25:23;100746.59;;;23.29;41.13
58072;BME280;60383;46.626;18.866;2023-05-03T11:27:49;100743.75;;;23.36;39.37
58072;BME280;60383;46.626;18.866;2023-05-03T11:30:15;100746.66;;;23.41;39.30
58072;BME280;60383;46.626;18.866;2023-05-03T11:32:42;100740.06;;;23.35;41.63
58072;BME280;60383;46.626;18.866;2023-05-03T11:35:09;100740.50;;;23.20;43.54
58072;BME280;60383;46.626;18.866;2023-05-03T11:37:35;100750.44;;;23.65;43.24
58072;BME280;60383;46.626;18.866;2023-05-03T11:40:00;100740.09;;;23.96;44.20
58072;BME280;60383;46.626;18.866;2023-05-03T11:42:26;100741.09;;;24.02;43.06
58072;BME280;60383;46.626;18.866;2023-05-03T11:44:53;100731.31;;;23.92;43.58
58072;BME280;60383;46.626;18.866;2023-05-03T11:47:19;100738.97;;;23.85;44.67
58072;BME280;60383;46.626;18.866;2023-05-03T11:49:56;100741.38;;;24.12;45.38
58072;BME280;60383;46.626;18.866;2023-05-03T11:52:25;100733.13;;;24.29;44.52
58072;BME280;60383;46.626;18.866;2023-05-03T11:54:52;100735.06;;;24.40;43.93
58072;BME280;60383;46.626;18.866;2023-05-03T11:57:18;100732.28;;;24.52;44.89
58072;BME280;60383;46.626;18.866;2023-05-03T11:59:43;100730.09;;;24.90;44.55
58072;BME280;60383;46.626;18.866;2023-05-03T12:02:14;100721.72;;;24.78;45.90
58072;BME280;60383;46.626;18.866;2023-05-03T12:04:41;100717.28;;;25.06;44.79
58072;BME280;60383;46.626;18.866;2023-05-03T12:07:08;100711.75;;;24.70;46.01
58072;BME280;60383;46.626;18.866;2023-05-03T12:09:34;100715.34;;;24.59;46.29
58072;BME280;60383;46.626;18.866;2023-05-03T12:12:02;100717.91;;;24.25;46.50
58072;BME280;60383;46.626;18.866;2023-05-03T12:14:58;100713.75;;;24.28;46.87
58072;BME280;60383;46.626;18.866;2023-05-03T12:17:37;100716.09;;;24.31;47.26
58072;BME280;60383;46.626;18.866;2023-05-03T12:20:17;100707.81;;;24.36;47.70
58072;BME280;60383;46.626;18.866;2023-05-03T12:22:42;100710.25;;;23.90;47.96
58072;BME280;60383;46.626;18.866;2023-05-03T12:25:08;100713.53;;;24.17;48.24
58072;BME280;60383;46.626;18.866;2023-05-03T12:27:33;100713.31;;;24.43;47.74
58072;BME280;60383;46.626;18.866;2023-05-03T12:29:59;100713.13;;;24.02;51.64
58072;BME280;60383;46.626;18.866;2023-05-03T12:32:24;100711.09;;;24.56;50.23
58072;BME280;60383;46.626;18.866;2023-05-03T12:34:50;100707.66;;;24.19;52.02
58072;BME280;60383;46.626;18.866;2023-05-03T12:37:19;100703.75;;;23.35;52.59
58072;BME280;60383;46.626;18.866;2023-05-03T12:39:45;100705.03;;;22.65;53.38
58072;BME280;60383;46.626;18.866;2023-05-03T12:42:10;100706.75;;;22.41;54.80
58072;BME280;60383;46.626;18.866;2023-05-03T12:44:39;100708.56;;;22.54;55.07
58072;BME280;60383;46.626;18.866;2023-05-03T12:47:06;100707.56;;;22.48;54.54
58072;BME280;60383;46.626;18.866;2023-05-03T12:49:31;100706.06;;;22.45;55.46
58072;BME280;60383;46.626;18.866;2023-05-03T12:51:58;100701.94;;;21.97;56.29
58072;BME280;60383;46.626;18.866;2023-05-03T12:54:25;100692.84;;;22.09;57.27